sensor_id;sensor_type;location;lat;lon;timestamp;temperature;humidity
16879;DHT22;8556;52.218;9.884;2022-09-30T00:00:32;7.40;99.90
16879;DHT22;8556;52.218;9.884;2022-09-30T00:02:58;7.30;99.90
16879;DHT22;8556;52.218;9.884;2022-09-30T00:05:25;7.10;99.90
16879;DHT22;8556;52.218;9.884;2022-09-30T00:07:54;7.10;99.90
16879;DHT22;8556;52.218;9.884;2022-09-30T00:10:20;7.10;99.90
16879;DHT22;8556;52.218;9.884;2022-09-30T00:12:49;7.00;99.90
16879;DHT22;8556;52.218;9.884;2022-09-30T00:15:16;7.10;99.90
16879;DHT22;8556;52.218;9.884;2022-09-30T00:17:43;7.10;99.90
16879;DHT22;8556;52.218;9.884;2022-09-30T00:20:10;7.10;99.90
16879;DHT22;8556;52.218;9.884;2022-09-30T00:22:37;7.20;99.90
16879;DHT22;8556;52.218;9.884;2022-09-30T00:25:06;7.20;99.90
16879;DHT22;8556;52.218;9.884;2022-09-30T00:27:33;7.20;99.90
16879;DHT22;8556;52.218;9.884;2022-09-30T00:30:00;7.30;99.90
16879;DHT22;8556;52.218;9.884;2022-09-30T00:32:26;7.30;99.90
16879;DHT22;8556;52.218;9.884;2022-09-30T00:34:53;7.30;99.90
16879;DHT22;8556;52.218;9.884;2022-09-30T00:37:20;7.20;99.90
16879;DHT22;8556;52.218;9.884;2022-09-30T00:39:47;7.20;99.90
16879;DHT22;8556;52.218;9.884;2022-09-30T00:42:15;7.00;99.90
16879;DHT22;8556;52.218;9.884;2022-09-30T00:44:49;6.80;99.90
16879;DHT22;8556;52.218;9.884;2022-09-30T00:47:37;6.90;99.90
16879;DHT22;8556;52.218;9.884;2022-09-30T00:50:14;7.00;99.90
16879;DHT22;8556;52.218;9.884;2022-09-30T00:52:44;7.20;99.90
16879;DHT22;8556;52.218;9.884;2022-09-30T00:55:22;7.20;99.90
16879;DHT22;8556;52.218;9.884;2022-09-30T00:57:53;7.30;99.90
16879;DHT22;8556;52.218;9.884;2022-09-30T01:00:20;7.50;99.90
16879;DHT22;8556;52.218;9.884;2022-09-30T01:02:47;7.30;99.90
16879;DHT22;8556;52.218;9.884;2022-09-30T01:05:15;7.20;99.90
16879;DHT22;8556;52.218;9.884;2022-09-30T01:07:42;7.20;99.90
16879;DHT22;8556;52.218;9.884;2022-09-30T01:10:09;7.10;99.90
16879;DHT22;8556;52.218;9.884;2022-09-30T01:12:35;7.00;99.90
16879;DHT22;8556;52.218;9.884;2022-09-30T01:15:04;6.90;99.90
16879;DHT22;8556;52.218;9.884;2022-09-30T01:17:38;6.90;99.90
16879;DHT22;8556;52.218;9.884;2022-09-30T01:20:46;6.90;99.90
16879;DHT22;8556;52.218;9.884;2022-09-30T01:26:41;6.70;99.90
16879;DHT22;8556;52.218;9.884;2022-09-30T01:29:43;6.60;99.90
16879;DHT22;8556;52.218;9.884;2022-09-30T01:32:22;6.60;99.90
16879;DHT22;8556;52.218;9.884;2022-09-30T01:35:03;6.60;99.90
16879;DHT22;8556;52.218;9.884;2022-09-30T01:37:43;6.40;99.90
16879;DHT22;8556;52.218;9.884;2022-09-30T01:40:20;6.20;99.90
16879;DHT22;8556;52.218;9.884;2022-09-30T01:42:54;6.30;99.90
16879;DHT22;8556;52.218;9.884;2022-09-30T01:45:30;6.40;99.90
16879;DHT22;8556;52.218;9.884;2022-09-30T01:48:04;6.30;99.90
16879;DHT22;8556;52.218;9.884;2022-09-30T01:50:39;6.30;99.90
16879;DHT22;8556;52.218;9.884;2022-09-30T01:53:15;6.30;99.90
16879;DHT22;8556;52.218;9.884;2022-09-30T01:55:47;6.30;99.90
16879;DHT22;8556;52.218;9.884;2022-09-30T01:58:21;6.30;99.90
16879;DHT22;8556;52.218;9.884;2022-09-30T02:00:55;6.40;99.90
16879;DHT22;8556;52.218;9.884;2022-09-30T02:03:28;6.30;99.90
16879;DHT22;8556;52.218;9.884;2022-09-30T02:06:01;6.30;99.90
16879;DHT22;8556;52.218;9.884;2022-09-30T02:08:33;6.20;99.90
16879;DHT22;8556;52.218;9.884;2022-09-30T02:11:05;5.80;99.90
16879;DHT22;8556;52.218;9.884;2022-09-30T02:13:38;5.70;99.90
16879;DHT22;8556;52.218;9.884;2022-09-30T02:16:11;5.60;99.90
16879;DHT22;8556;52.218;9.884;2022-09-30T02:18:47;5.40;99.90
16879;DHT22;8556;52.218;9.884;2022-09-30T02:21:19;5.70;99.90
16879;DHT22;8556;52.218;9.884;2022-09-30T02:23:49;5.80;99.90
16879;DHT22;8556;52.218;9.884;2022-09-30T02:26:22;5.90;99.90
16879;DHT22;8556;52.218;9.884;2022-09-30T02:28:53;5.90;99.90
16879;DHT22;8556;52.218;9.884;2022-09-30T02:31:23;5.90;99.90
16879;DHT22;8556;52.218;9.884;2022-09-30T02:33:56;5.90;99.90
16879;DHT22;8556;52.218;9.884;2022-09-30T02:36:27;6.10;99.90
16879;DHT22;8556;52.218;9.884;2022-09-30T02:38:59;6.00;99.90
16879;DHT22;8556;52.218;9.884;2022-09-30T02:41:29;5.90;99.90
16879;DHT22;8556;52.218;9.884;2022-09-30T02:43:59;5.80;99.90
16879;DHT22;8556;52.218;9.884;2022-09-30T02:46:35;6.00;99.90
16879;DHT22;8556;52.218;9.884;2022-09-30T02:49:12;6.00;99.90
16879;DHT22;8556;52.218;9.884;2022-09-30T02:51:53;5.90;99.90
16879;DHT22;8556;52.218;9.884;2022-09-30T02:54:31;5.80;99.90
16879;DHT22;8556;52.218;9.884;2022-09-30T02:57:07;5.80;99.90
16879;DHT22;8556;52.218;9.884;2022-09-30T02:59:39;5.70;99.90
16879;DHT22;8556;52.218;9.884;2022-09-30T03:02:06;5.80;99.90
16879;DHT22;8556;52.218;9.884;2022-09-30T03:04:37;5.70;99.90
16879;DHT22;8556;52.218;9.884;2022-09-30T03:07:06;5.60;99.90
16879;DHT22;8556;52.218;9.884;2022-09-30T03:09:34;5.50;99.90
16879;DHT22;8556;52.218;9.884;2022-09-30T03:12:09;5.60;99.90
16879;DHT22;8556;52.218;9.884;2022-09-30T03:14:50;5.80;99.90
16879;DHT22;8556;52.218;9.884;2022-09-30T03:17:37;5.90;99.90
16879;DHT22;8556;52.218;9.884;2022-09-30T03:20:29;5.90;99.90
16879;DHT22;8556;52.218;9.884;2022-09-30T03:26:12;5.80;99.90
16879;DHT22;8556;52.218;9.884;2022-09-30T03:28:47;5.90;99.90
16879;DHT22;8556;52.218;9.884;2022-09-30T03:31:21;6.00;99.90
16879;DHT22;8556;52.218;9.884;2022-09-30T03:33:53;5.90;99.90
16879;DHT22;8556;52.218;9.884;2022-09-30T03:36:26;5.80;99.90
16879;DHT22;8556;52.218;9.884;2022-09-30T03:39:01;5.60;99.90
16879;DHT22;8556;52.218;9.884;2022-09-30T03:41:34;5.50;99.90
16879;DHT22;8556;52.218;9.884;2022-09-30T03:44:08;5.60;99.90
16879;DHT22;8556;52.218;9.884;2022-09-30T03:46:39;5.60;99.90
16879;DHT22;8556;52.218;9.884;2022-09-30T03:49:10;5.70;99.90
16879;DHT22;8556;52.218;9.884;2022-09-30T03:51:40;5.70;99.90
16879;DHT22;8556;52.218;9.884;2022-09-30T03:54:08;5.90;99.90
16879;DHT22;8556;52.218;9.884;2022-09-30T03:56:36;5.80;99.90
16879;DHT22;8556;52.218;9.884;2022-09-30T03:59:09;5.70;99.90
16879;DHT22;8556;52.218;9.884;2022-09-30T04:01:36;5.70;99.90
16879;DHT22;8556;52.218;9.884;2022-09-30T04:04:03;5.80;99.90
16879;DHT22;8556;52.218;9.884;2022-09-30T04:06:30;5.70;99.90
16879;DHT22;8556;52.218;9.884;2022-09-30T04:08:58;5.80;99.90
16879;DHT22;8556;52.218;9.884;2022-09-30T04:11:25;5.70;99.90
16879;DHT22;8556;52.218;9.884;2022-09-30T04:13:52;5.70;99.90
16879;DHT22;8556;52.218;9.884;2022-09-30T04:16:19;5.60;99.90
16879;DHT22;8556;52.218;9.884;2022-09-30T04:18:45;5.50;99.90
16879;DHT22;8556;52.218;9.884;2022-09-30T04:21:13;5.50;99.90
16879;DHT22;8556;52.218;9.884;2022-09-30T04:23:41;5.50;99.90
16879;DHT22;8556;52.218;9.884;2022-09-30T04:26:12;4.90;99.90
16879;DHT22;8556;52.218;9.884;2022-09-30T04:28:39;4.70;99.90
16879;DHT22;8556;52.218;9.884;2022-09-30T04:31:06;5.00;99.90
16879;DHT22;8556;52.218;9.884;2022-09-30T04:33:33;5.10;99.90
16879;DHT22;8556;52.218;9.884;2022-09-30T04:36:01;5.10;99.90
16879;DHT22;8556;52.218;9.884;2022-09-30T04:38:27;5.30;99.90
16879;DHT22;8556;52.218;9.884;2022-09-30T04:40:56;5.30;99.90
16879;DHT22;8556;52.218;9.884;2022-09-30T04:43:24;5.20;99.90
16879;DHT22;8556;52.218;9.884;2022-09-30T04:45:52;5.20;99.90
16879;DHT22;8556;52.218;9.884;2022-09-30T04:48:19;5.30;99.90
16879;DHT22;8556;52.218;9.884;2022-09-30T04:50:47;5.40;99.90
16879;DHT22;8556;52.218;9.884;2022-09-30T04:53:15;5.40;99.90
16879;DHT22;8556;52.218;9.884;2022-09-30T04:55:42;5.30;99.90
16879;DHT22;8556;52.218;9.884;2022-09-30T04:58:10;4.70;99.90
16879;DHT22;8556;52.218;9.884;2022-09-30T05:00:38;4.60;99.90
16879;DHT22;8556;52.218;9.884;2022-09-30T05:03:05;4.80;99.90
16879;DHT22;8556;52.218;9.884;2022-09-30T05:05:32;5.00;99.90
16879;DHT22;8556;52.218;9.884;2022-09-30T05:08:00;5.20;99.90
16879;DHT22;8556;52.218;9.884;2022-09-30T05:10:27;5.10;99.90
16879;DHT22;8556;52.218;9.884;2022-09-30T05:12:54;5.20;99.90
16879;DHT22;8556;52.218;9.884;2022-09-30T05:15:22;5.20;99.90
16879;DHT22;8556;52.218;9.884;2022-09-30T05:17:50;4.80;99.90
16879;DHT22;8556;52.218;9.884;2022-09-30T05:20:17;4.60;99.90
16879;DHT22;8556;52.218;9.884;2022-09-30T05:22:44;4.60;99.90
16879;DHT22;8556;52.218;9.884;2022-09-30T05:25:11;4.50;99.90
16879;DHT22;8556;52.218;9.884;2022-09-30T05:27:38;4.70;99.90
16879;DHT22;8556;52.218;9.884;2022-09-30T05:30:06;4.90;99.90
16879;DHT22;8556;52.218;9.884;2022-09-30T05:32:33;4.80;99.90
16879;DHT22;8556;52.218;9.884;2022-09-30T05:35:02;4.80;99.90
16879;DHT22;8556;52.218;9.884;2022-09-30T05:37:29;4.90;99.90
16879;DHT22;8556;52.218;9.884;2022-09-30T05:39:55;5.00;99.90
16879;DHT22;8556;52.218;9.884;2022-09-30T05:42:23;4.80;99.90
16879;DHT22;8556;52.218;9.884;2022-09-30T05:44:50;4.70;99.90
16879;DHT22;8556;52.218;9.884;2022-09-30T05:47:17;4.90;99.90
16879;DHT22;8556;52.218;9.884;2022-09-30T05:49:44;4.80;99.90
16879;DHT22;8556;52.218;9.884;2022-09-30T05:52:12;4.80;99.90
16879;DHT22;8556;52.218;9.884;2022-09-30T05:54:39;4.90;99.90
16879;DHT22;8556;52.218;9.884;2022-09-30T05:57:07;4.60;99.90
16879;DHT22;8556;52.218;9.884;2022-09-30T05:59:34;4.80;99.90
16879;DHT22;8556;52.218;9.884;2022-09-30T06:02:02;4.90;99.90
16879;DHT22;8556;52.218;9.884;2022-09-30T06:04:29;5.00;99.90
16879;DHT22;8556;52.218;9.884;2022-09-30T06:06:56;5.00;99.90
16879;DHT22;8556;52.218;9.884;2022-09-30T06:09:24;5.10;99.90
16879;DHT22;8556;52.218;9.884;2022-09-30T06:11:51;5.20;99.90
16879;DHT22;8556;52.218;9.884;2022-09-30T06:14:23;5.20;99.90
16879;DHT22;8556;52.218;9.884;2022-09-30T06:16:50;5.40;99.90
16879;DHT22;8556;52.218;9.884;2022-09-30T06:19:17;5.40;99.90
16879;DHT22;8556;52.218;9.884;2022-09-30T06:21:44;5.30;99.90
16879;DHT22;8556;52.218;9.884;2022-09-30T06:24:10;5.40;99.90
16879;DHT22;8556;52.218;9.884;2022-09-30T06:26:40;5.50;99.90
16879;DHT22;8556;52.218;9.884;2022-09-30T06:29:07;5.60;99.90
16879;DHT22;8556;52.218;9.884;2022-09-30T06:31:34;5.70;99.90
16879;DHT22;8556;52.218;9.884;2022-09-30T06:34:01;5.80;99.90
16879;DHT22;8556;52.218;9.884;2022-09-30T06:36:28;5.80;99.90
16879;DHT22;8556;52.218;9.884;2022-09-30T06:38:56;5.80;99.90
16879;DHT22;8556;52.218;9.884;2022-09-30T06:41:23;5.90;99.90
16879;DHT22;8556;52.218;9.884;2022-09-30T06:43:53;5.90;99.90
16879;DHT22;8556;52.218;9.884;2022-09-30T06:46:20;6.00;99.90
16879;DHT22;8556;52.218;9.884;2022-09-30T06:48:48;6.10;99.90
16879;DHT22;8556;52.218;9.884;2022-09-30T06:51:17;6.20;99.90
16879;DHT22;8556;52.218;9.884;2022-09-30T06:53:44;6.30;99.90
16879;DHT22;8556;52.218;9.884;2022-09-30T06:56:11;6.50;99.90
16879;DHT22;8556;52.218;9.884;2022-09-30T06:58:39;6.60;99.90
16879;DHT22;8556;52.218;9.884;2022-09-30T07:01:08;6.70;99.90
16879;DHT22;8556;52.218;9.884;2022-09-30T07:03:38;6.70;99.90
16879;DHT22;8556;52.218;9.884;2022-09-30T07:06:05;6.80;99.90
16879;DHT22;8556;52.218;9.884;2022-09-30T07:08:33;6.80;99.90
16879;DHT22;8556;52.218;9.884;2022-09-30T07:11:02;7.00;99.90
16879;DHT22;8556;52.218;9.884;2022-09-30T07:13:30;7.30;99.90
16879;DHT22;8556;52.218;9.884;2022-09-30T07:15:57;7.40;99.90
16879;DHT22;8556;52.218;9.884;2022-09-30T07:18:25;7.50;99.90
16879;DHT22;8556;52.218;9.884;2022-09-30T07:20:54;7.70;99.90
16879;DHT22;8556;52.218;9.884;2022-09-30T07:23:22;7.60;99.90
16879;DHT22;8556;52.218;9.884;2022-09-30T07:25:51;7.70;99.90
16879;DHT22;8556;52.218;9.884;2022-09-30T07:28:20;7.90;99.90
16879;DHT22;8556;52.218;9.884;2022-09-30T07:30:46;8.50;99.90
16879;DHT22;8556;52.218;9.884;2022-09-30T07:33:13;10.40;99.90
16879;DHT22;8556;52.218;9.884;2022-09-30T07:35:49;11.50;99.90
16879;DHT22;8556;52.218;9.884;2022-09-30T07:38:16;11.50;99.90
16879;DHT22;8556;52.218;9.884;2022-09-30T07:40:51;10.50;99.90
16879;DHT22;8556;52.218;9.884;2022-09-30T07:43:19;10.10;99.90
16879;DHT22;8556;52.218;9.884;2022-09-30T07:45:46;9.70;99.90
16879;DHT22;8556;52.218;9.884;2022-09-30T07:48:14;9.60;99.90
16879;DHT22;8556;52.218;9.884;2022-09-30T07:50:56;9.60;99.90
16879;DHT22;8556;52.218;9.884;2022-09-30T07:53:23;9.70;99.90
16879;DHT22;8556;52.218;9.884;2022-09-30T07:55:50;9.80;99.90
16879;DHT22;8556;52.218;9.884;2022-09-30T07:58:16;9.70;99.90
16879;DHT22;8556;52.218;9.884;2022-09-30T08:00:46;9.80;99.90
16879;DHT22;8556;52.218;9.884;2022-09-30T08:03:14;9.80;99.90
16879;DHT22;8556;52.218;9.884;2022-09-30T08:05:42;9.80;99.90
16879;DHT22;8556;52.218;9.884;2022-09-30T08:08:11;9.90;99.90
16879;DHT22;8556;52.218;9.884;2022-09-30T08:10:38;9.90;99.90
16879;DHT22;8556;52.218;9.884;2022-09-30T08:13:05;10.00;99.90
16879;DHT22;8556;52.218;9.884;2022-09-30T08:15:32;10.00;99.90
16879;DHT22;8556;52.218;9.884;2022-09-30T08:17:59;10.30;99.90
16879;DHT22;8556;52.218;9.884;2022-09-30T08:20:26;10.40;99.90
16879;DHT22;8556;52.218;9.884;2022-09-30T08:22:53;10.50;99.90
16879;DHT22;8556;52.218;9.884;2022-09-30T08:25:21;10.60;99.90
16879;DHT22;8556;52.218;9.884;2022-09-30T08:27:49;10.70;99.90
16879;DHT22;8556;52.218;9.884;2022-09-30T08:30:16;11.00;99.90
16879;DHT22;8556;52.218;9.884;2022-09-30T08:32:43;10.90;99.90
16879;DHT22;8556;52.218;9.884;2022-09-30T08:35:10;11.00;99.90
16879;DHT22;8556;52.218;9.884;2022-09-30T08:37:37;11.10;99.90
16879;DHT22;8556;52.218;9.884;2022-09-30T08:40:04;11.20;99.90
16879;DHT22;8556;52.218;9.884;2022-09-30T08:42:44;11.20;99.90
16879;DHT22;8556;52.218;9.884;2022-09-30T08:45:23;11.30;99.90
16879;DHT22;8556;52.218;9.884;2022-09-30T08:47:59;11.30;99.90
16879;DHT22;8556;52.218;9.884;2022-09-30T08:50:34;11.60;99.90
16879;DHT22;8556;52.218;9.884;2022-09-30T08:53:10;11.70;1.00
16879;DHT22;8556;52.218;9.884;2022-09-30T08:55:40;11.80;1.00
16879;DHT22;8556;52.218;9.884;2022-09-30T08:58:16;11.90;1.00
16879;DHT22;8556;52.218;9.884;2022-09-30T09:00:45;12.00;28.00
16879;DHT22;8556;52.218;9.884;2022-09-30T09:03:12;12.10;1.00
16879;DHT22;8556;52.218;9.884;2022-09-30T09:05:49;12.40;1.00
16879;DHT22;8556;52.218;9.884;2022-09-30T09:08:27;12.50;1.00
16879;DHT22;8556;52.218;9.884;2022-09-30T09:11:00;12.50;1.00
16879;DHT22;8556;52.218;9.884;2022-09-30T09:13:40;13.00;1.00
16879;DHT22;8556;52.218;9.884;2022-09-30T09:16:14;13.40;1.00
16879;DHT22;8556;52.218;9.884;2022-09-30T09:18:57;13.70;1.00
16879;DHT22;8556;52.218;9.884;2022-09-30T09:21:32;14.00;1.00
16879;DHT22;8556;52.218;9.884;2022-09-30T09:24:05;14.20;99.90
16879;DHT22;8556;52.218;9.884;2022-09-30T09:26:38;14.40;1.00
16879;DHT22;8556;52.218;9.884;2022-09-30T09:29:18;14.50;1.00
16879;DHT22;8556;52.218;9.884;2022-09-30T09:31:46;14.40;1.00
16879;DHT22;8556;52.218;9.884;2022-09-30T09:34:13;14.60;1.00
16879;DHT22;8556;52.218;9.884;2022-09-30T09:36:51;14.80;1.00
16879;DHT22;8556;52.218;9.884;2022-09-30T09:39:40;15.00;1.00
16879;DHT22;8556;52.218;9.884;2022-09-30T09:42:24;15.20;1.00
16879;DHT22;8556;52.218;9.884;2022-09-30T09:44:57;15.30;1.00
16879;DHT22;8556;52.218;9.884;2022-09-30T09:47:25;15.20;99.90
16879;DHT22;8556;52.218;9.884;2022-09-30T09:49:56;15.60;99.90
16879;DHT22;8556;52.218;9.884;2022-09-30T09:52:40;15.50;1.00
16879;DHT22;8556;52.218;9.884;2022-09-30T09:55:11;15.50;1.00
16879;DHT22;8556;52.218;9.884;2022-09-30T09:57:38;16.20;1.00
16879;DHT22;8556;52.218;9.884;2022-09-30T10:00:09;16.10;99.90
16879;DHT22;8556;52.218;9.884;2022-09-30T10:03:01;16.00;1.00
16879;DHT22;8556;52.218;9.884;2022-09-30T10:05:30;16.20;1.00
16879;DHT22;8556;52.218;9.884;2022-09-30T10:08:13;16.40;99.90
16879;DHT22;8556;52.218;9.884;2022-09-30T10:10:44;16.50;1.00
16879;DHT22;8556;52.218;9.884;2022-09-30T10:13:17;16.60;1.00
16879;DHT22;8556;52.218;9.884;2022-09-30T10:15:46;16.60;1.00
16879;DHT22;8556;52.218;9.884;2022-09-30T10:18:18;16.80;1.00
16879;DHT22;8556;52.218;9.884;2022-09-30T10:20:51;16.90;1.00
16879;DHT22;8556;52.218;9.884;2022-09-30T10:23:21;16.70;99.90
16879;DHT22;8556;52.218;9.884;2022-09-30T10:25:56;17.10;1.00
16879;DHT22;8556;52.218;9.884;2022-09-30T10:28:25;16.80;99.90
16879;DHT22;8556;52.218;9.884;2022-09-30T10:31:04;17.00;99.90
16879;DHT22;8556;52.218;9.884;2022-09-30T10:33:35;17.20;99.90
16879;DHT22;8556;52.218;9.884;2022-09-30T10:36:10;16.90;1.00
16879;DHT22;8556;52.218;9.884;2022-09-30T10:38:47;16.90;1.00
16879;DHT22;8556;52.218;9.884;2022-09-30T10:41:21;17.00;1.00
16879;DHT22;8556;52.218;9.884;2022-09-30T10:43:52;17.30;99.90
16879;DHT22;8556;52.218;9.884;2022-09-30T10:46:25;17.30;1.00
16879;DHT22;8556;52.218;9.884;2022-09-30T10:48:54;17.10;1.00
16879;DHT22;8556;52.218;9.884;2022-09-30T10:51:25;17.00;1.00
16879;DHT22;8556;52.218;9.884;2022-09-30T10:53:52;17.40;1.00
16879;DHT22;8556;52.218;9.884;2022-09-30T10:56:35;17.50;1.00
16879;DHT22;8556;52.218;9.884;2022-09-30T10:59:04;17.70;1.00
16879;DHT22;8556;52.218;9.884;2022-09-30T11:01:37;17.60;1.00
16879;DHT22;8556;52.218;9.884;2022-09-30T11:04:10;17.40;1.00
16879;DHT22;8556;52.218;9.884;2022-09-30T11:06:41;17.60;1.00
16879;DHT22;8556;52.218;9.884;2022-09-30T11:09:14;17.50;1.00
16879;DHT22;8556;52.218;9.884;2022-09-30T11:11:46;17.50;1.00
16879;DHT22;8556;52.218;9.884;2022-09-30T11:14:26;17.80;1.00
16879;DHT22;8556;52.218;9.884;2022-09-30T11:17:03;17.60;1.00
16879;DHT22;8556;52.218;9.884;2022-09-30T11:19:34;18.00;1.00
16879;DHT22;8556;52.218;9.884;2022-09-30T11:22:19;18.10;1.00
16879;DHT22;8556;52.218;9.884;2022-09-30T11:24:49;17.60;1.00
16879;DHT22;8556;52.218;9.884;2022-09-30T11:27:21;17.40;1.00
16879;DHT22;8556;52.218;9.884;2022-09-30T11:29:58;17.50;1.00
16879;DHT22;8556;52.218;9.884;2022-09-30T11:32:39;17.40;1.00
16879;DHT22;8556;52.218;9.884;2022-09-30T11:35:31;17.20;1.00
16879;DHT22;8556;52.218;9.884;2022-09-30T11:38:12;16.70;1.00
16879;DHT22;8556;52.218;9.884;2022-09-30T11:40:46;16.50;99.90
16879;DHT22;8556;52.218;9.884;2022-09-30T11:43:25;16.60;99.90
16879;DHT22;8556;52.218;9.884;2022-09-30T11:46:11;16.70;1.00
16879;DHT22;8556;52.218;9.884;2022-09-30T11:48:56;16.50;1.00
16879;DHT22;8556;52.218;9.884;2022-09-30T11:51:29;16.60;1.00
16879;DHT22;8556;52.218;9.884;2022-09-30T11:54:04;17.10;1.00
16879;DHT22;8556;52.218;9.884;2022-09-30T11:56:40;17.40;1.00
16879;DHT22;8556;52.218;9.884;2022-09-30T11:59:15;17.50;99.90
16879;DHT22;8556;52.218;9.884;2022-09-30T12:01:47;17.60;99.90
16879;DHT22;8556;52.218;9.884;2022-09-30T12:04:23;17.80;99.90
16879;DHT22;8556;52.218;9.884;2022-09-30T12:06:57;18.50;99.90
16879;DHT22;8556;52.218;9.884;2022-09-30T12:09:28;18.10;99.90
16879;DHT22;8556;52.218;9.884;2022-09-30T12:11:59;18.40;99.90
16879;DHT22;8556;52.218;9.884;2022-09-30T12:14:34;18.40;99.90
16879;DHT22;8556;52.218;9.884;2022-09-30T12:17:05;18.50;99.90
16879;DHT22;8556;52.218;9.884;2022-09-30T12:19:38;18.90;99.90
16879;DHT22;8556;52.218;9.884;2022-09-30T12:22:13;19.20;99.90
16879;DHT22;8556;52.218;9.884;2022-09-30T12:24:43;18.70;99.90
16879;DHT22;8556;52.218;9.884;2022-09-30T12:27:15;18.70;99.90
16879;DHT22;8556;52.218;9.884;2022-09-30T12:29:49;18.90;91.80
16879;DHT22;8556;52.218;9.884;2022-09-30T12:33:03;18.80;6.90
16879;DHT22;8556;52.218;9.884;2022-09-30T12:36:05;18.50;1.00
16879;DHT22;8556;52.218;9.884;2022-09-30T12:39:09;18.60;1.00
16879;DHT22;8556;52.218;9.884;2022-09-30T12:41:54;18.60;1.00
16879;DHT22;8556;52.218;9.884;2022-09-30T12:44:48;19.00;1.00
16879;DHT22;8556;52.218;9.884;2022-09-30T12:47:31;18.70;1.00
16879;DHT22;8556;52.218;9.884;2022-09-30T12:50:02;18.40;1.00
16879;DHT22;8556;52.218;9.884;2022-09-30T12:52:34;18.50;1.00
16879;DHT22;8556;52.218;9.884;2022-09-30T12:55:07;18.90;1.00
16879;DHT22;8556;52.218;9.884;2022-09-30T12:57:39;19.10;1.00
16879;DHT22;8556;52.218;9.884;2022-09-30T13:00:14;18.90;1.00
16879;DHT22;8556;52.218;9.884;2022-09-30T13:02:43;18.90;1.00
16879;DHT22;8556;52.218;9.884;2022-09-30T13:05:46;18.90;1.00
16879;DHT22;8556;52.218;9.884;2022-09-30T13:08:41;19.00;1.00
16879;DHT22;8556;52.218;9.884;2022-09-30T13:11:31;18.50;1.00
16879;DHT22;8556;52.218;9.884;2022-09-30T13:14:10;18.70;1.00
16879;DHT22;8556;52.218;9.884;2022-09-30T13:16:57;18.60;1.00
16879;DHT22;8556;52.218;9.884;2022-09-30T13:19:31;18.80;1.00
16879;DHT22;8556;52.218;9.884;2022-09-30T13:25:17;18.50;1.00
16879;DHT22;8556;52.218;9.884;2022-09-30T13:27:46;18.30;1.00
16879;DHT22;8556;52.218;9.884;2022-09-30T13:30:37;18.50;1.00
16879;DHT22;8556;52.218;9.884;2022-09-30T13:33:31;18.50;1.00
16879;DHT22;8556;52.218;9.884;2022-09-30T13:36:13;18.40;1.00
16879;DHT22;8556;52.218;9.884;2022-09-30T13:38:41;18.20;1.00
16879;DHT22;8556;52.218;9.884;2022-09-30T13:41:16;18.40;1.00
16879;DHT22;8556;52.218;9.884;2022-09-30T13:43:58;18.60;1.00
16879;DHT22;8556;52.218;9.884;2022-09-30T13:46:34;18.90;1.00
16879;DHT22;8556;52.218;9.884;2022-09-30T13:49:08;18.80;1.00
16879;DHT22;8556;52.218;9.884;2022-09-30T13:51:37;18.70;1.00
16879;DHT22;8556;52.218;9.884;2022-09-30T13:54:07;18.50;1.00
16879;DHT22;8556;52.218;9.884;2022-09-30T13:56:39;18.30;1.00
16879;DHT22;8556;52.218;9.884;2022-09-30T13:59:26;18.40;1.00
16879;DHT22;8556;52.218;9.884;2022-09-30T14:08:14;18.10;1.00
16879;DHT22;8556;52.218;9.884;2022-09-30T14:10:58;18.50;1.00
16879;DHT22;8556;52.218;9.884;2022-09-30T14:13:42;18.70;1.00
16879;DHT22;8556;52.218;9.884;2022-09-30T14:16:39;18.30;1.00
16879;DHT22;8556;52.218;9.884;2022-09-30T14:19:48;17.90;1.00
16879;DHT22;8556;52.218;9.884;2022-09-30T14:22:19;18.10;1.00
16879;DHT22;8556;52.218;9.884;2022-09-30T14:24:50;18.00;1.00
16879;DHT22;8556;52.218;9.884;2022-09-30T14:27:34;18.00;1.00
16879;DHT22;8556;52.218;9.884;2022-09-30T14:30:11;17.80;1.00
16879;DHT22;8556;52.218;9.884;2022-09-30T14:32:43;17.80;1.00
16879;DHT22;8556;52.218;9.884;2022-09-30T14:35:13;17.80;1.00
16879;DHT22;8556;52.218;9.884;2022-09-30T14:37:44;17.80;1.00
16879;DHT22;8556;52.218;9.884;2022-09-30T14:40:16;17.80;1.00
16879;DHT22;8556;52.218;9.884;2022-09-30T14:42:44;17.70;1.00
16879;DHT22;8556;52.218;9.884;2022-09-30T14:45:17;17.70;1.00
16879;DHT22;8556;52.218;9.884;2022-09-30T14:47:47;17.60;1.00
16879;DHT22;8556;52.218;9.884;2022-09-30T14:50:17;17.60;1.00
16879;DHT22;8556;52.218;9.884;2022-09-30T14:52:46;17.60;1.00
16879;DHT22;8556;52.218;9.884;2022-09-30T14:55:19;17.60;1.00
16879;DHT22;8556;52.218;9.884;2022-09-30T14:57:48;17.50;1.00
16879;DHT22;8556;52.218;9.884;2022-09-30T15:00:26;17.50;1.00
16879;DHT22;8556;52.218;9.884;2022-09-30T15:02:53;17.60;1.00
16879;DHT22;8556;52.218;9.884;2022-09-30T15:05:20;17.60;1.00
16879;DHT22;8556;52.218;9.884;2022-09-30T15:07:47;17.40;1.00
16879;DHT22;8556;52.218;9.884;2022-09-30T15:10:19;17.60;1.00
16879;DHT22;8556;52.218;9.884;2022-09-30T15:12:48;17.50;1.00
16879;DHT22;8556;52.218;9.884;2022-09-30T15:15:35;17.30;1.00
16879;DHT22;8556;52.218;9.884;2022-09-30T15:18:24;17.10;1.00
16879;DHT22;8556;52.218;9.884;2022-09-30T15:20:53;17.10;1.00
16879;DHT22;8556;52.218;9.884;2022-09-30T15:23:24;17.10;1.00
16879;DHT22;8556;52.218;9.884;2022-09-30T15:25:51;17.00;1.00
16879;DHT22;8556;52.218;9.884;2022-09-30T15:28:18;16.90;1.00
16879;DHT22;8556;52.218;9.884;2022-09-30T15:30:47;17.20;1.00
16879;DHT22;8556;52.218;9.884;2022-09-30T15:33:18;17.10;1.00
16879;DHT22;8556;52.218;9.884;2022-09-30T15:35:46;17.00;1.00
16879;DHT22;8556;52.218;9.884;2022-09-30T15:38:17;16.90;1.00
16879;DHT22;8556;52.218;9.884;2022-09-30T15:40:47;16.90;1.00
16879;DHT22;8556;52.218;9.884;2022-09-30T15:43:30;16.60;1.00
16879;DHT22;8556;52.218;9.884;2022-09-30T15:46:15;16.80;1.00
16879;DHT22;8556;52.218;9.884;2022-09-30T15:48:43;16.60;1.00
16879;DHT22;8556;52.218;9.884;2022-09-30T15:51:34;16.50;1.00
16879;DHT22;8556;52.218;9.884;2022-09-30T15:54:27;16.30;1.00
16879;DHT22;8556;52.218;9.884;2022-09-30T15:56:57;16.20;1.00
16879;DHT22;8556;52.218;9.884;2022-09-30T15:59:56;15.90;1.00
16879;DHT22;8556;52.218;9.884;2022-09-30T16:02:26;15.90;1.00
16879;DHT22;8556;52.218;9.884;2022-09-30T16:04:53;15.80;99.90
16879;DHT22;8556;52.218;9.884;2022-09-30T16:07:22;15.70;99.90
16879;DHT22;8556;52.218;9.884;2022-09-30T16:09:53;15.80;99.90
16879;DHT22;8556;52.218;9.884;2022-09-30T16:12:22;15.80;99.90
16879;DHT22;8556;52.218;9.884;2022-09-30T16:14:54;15.80;99.90
16879;DHT22;8556;52.218;9.884;2022-09-30T16:17:25;15.50;99.90
16879;DHT22;8556;52.218;9.884;2022-09-30T16:19:54;15.50;99.90
16879;DHT22;8556;52.218;9.884;2022-09-30T16:22:50;15.50;99.90
16879;DHT22;8556;52.218;9.884;2022-09-30T16:25:23;15.40;99.90
16879;DHT22;8556;52.218;9.884;2022-09-30T16:27:55;15.20;1.00
16879;DHT22;8556;52.218;9.884;2022-09-30T16:30:23;15.00;1.00
16879;DHT22;8556;52.218;9.884;2022-09-30T16:32:54;14.90;1.00
16879;DHT22;8556;52.218;9.884;2022-09-30T16:35:23;14.80;1.00
16879;DHT22;8556;52.218;9.884;2022-09-30T16:37:57;14.60;1.00
16879;DHT22;8556;52.218;9.884;2022-09-30T16:40:25;14.40;99.90
16879;DHT22;8556;52.218;9.884;2022-09-30T16:42:53;14.30;99.90
16879;DHT22;8556;52.218;9.884;2022-09-30T16:45:24;14.20;1.00
16879;DHT22;8556;52.218;9.884;2022-09-30T16:47:53;14.10;1.00
16879;DHT22;8556;52.218;9.884;2022-09-30T16:50:30;14.00;1.00